CFG1609 LGKO-EDDM
Flight info
| Callsign | CFG1609 |
|---|---|
| Flight time | 2h 30m |
| Altitude | 34000 |
| Route | LARKI UL609 MES UG18 DIKNI/N0454F360 UG18 FSK UL608 DISOR DCT LONTA UL608 DOLEV DCT PETOV DCT GOLVA DCT VATET DCT REDBU Q112 NAPSA NAPSA4A |
| Aircraft | A320/M-SDE3FGHIJ1LORVWXYZ/S |
Departure
| Time | 2026-05-08 15:28 |
|---|---|
| Airport | Kos International Airport "Ippokratis" (LGKO) |
Arrival
| Time | 2026-05-08 17:59 |
|---|---|
| Airport | Munich Airport (EDDM) |
| Time | Latitude | Longitude | Altitude | Speed | Heading |
|---|---|---|---|---|---|
| 2026-05-08 14:53 | 36.79934 | 27.09089 | 414 ft | 0 kts | 58° |
| 2026-05-08 15:20 | 36.79932 | 27.09085 | 419 ft | 3 kts | 58° |
| 2026-05-08 15:20 | 36.79918 | 27.09056 | 414 ft | 4 kts | 58° |
| 2026-05-08 15:20 | 36.79903 | 27.09028 | 409 ft | 4 kts | 58° |
| 2026-05-08 15:20 | 36.79892 | 27.09005 | 408 ft | 4 kts | 55° |
| 2026-05-08 15:21 | 36.79875 | 27.08984 | 408 ft | 4 kts | 12° |
| 2026-05-08 15:21 | 36.79852 | 27.08983 | 413 ft | 3 kts | 358° |
| 2026-05-08 15:21 | 36.79847 | 27.08983 | 415 ft | 0 kts | 358° |
| 2026-05-08 15:24 | 36.79849 | 27.08983 | 414 ft | 1 kts | 358° |
| 2026-05-08 15:24 | 36.79859 | 27.08982 | 410 ft | 2 kts | 358° |
| 2026-05-08 15:24 | 36.79880 | 27.08981 | 408 ft | 4 kts | 358° |
| 2026-05-08 15:24 | 36.79910 | 27.08979 | 413 ft | 5 kts | 357° |
| 2026-05-08 15:25 | 36.79950 | 27.08971 | 417 ft | 7 kts | 341° |
| 2026-05-08 15:25 | 36.80004 | 27.08931 | 409 ft | 11 kts | 328° |
| 2026-05-08 15:25 | 36.80080 | 27.08870 | 419 ft | 15 kts | 327° |
| 2026-05-08 15:25 | 36.80176 | 27.08794 | 419 ft | 16 kts | 328° |
| 2026-05-08 15:26 | 36.80263 | 27.08726 | 412 ft | 14 kts | 327° |
| 2026-05-08 15:26 | 36.80325 | 27.08656 | 412 ft | 11 kts | 293° |
| 2026-05-08 15:26 | 36.80342 | 27.08580 | 418 ft | 6 kts | 283° |
| 2026-05-08 15:26 | 36.80351 | 27.08534 | 416 ft | 4 kts | 283° |
| 2026-05-08 15:27 | 36.80356 | 27.08504 | 421 ft | 4 kts | 282° |
| 2026-05-08 15:27 | 36.80351 | 27.08464 | 421 ft | 4 kts | 244° |
| 2026-05-08 15:27 | 36.80320 | 27.08449 | 420 ft | 6 kts | 184° |
| 2026-05-08 15:27 | 36.80282 | 27.08473 | 419 ft | 8 kts | 147° |
| 2026-05-08 15:28 | 36.80092 | 27.08619 | 415 ft | 68 kts | 148° |
| 2026-05-08 15:28 | 36.79500 | 27.09081 | 417 ft | 131 kts | 148° |
| 2026-05-08 15:28 | 36.78612 | 27.09775 | 695 ft | 149 kts | 147° |
| 2026-05-08 15:28 | 36.77759 | 27.10448 | 1346 ft | 149 kts | 148° |
| 2026-05-08 15:29 | 36.76880 | 27.11153 | 1887 ft | 151 kts | 147° |
| 2026-05-08 15:29 | 36.75985 | 27.11896 | 2265 ft | 163 kts | 148° |
| 2026-05-08 15:29 | 36.74922 | 27.12731 | 2176 ft | 204 kts | 149° |
| 2026-05-08 15:29 | 36.73922 | 27.14081 | 2498 ft | 221 kts | 109° |
| 2026-05-08 15:30 | 36.73950 | 27.15981 | 3140 ft | 227 kts | 70° |
| 2026-05-08 15:30 | 36.74682 | 27.17742 | 3853 ft | 229 kts | 57° |
| 2026-05-08 15:30 | 36.75573 | 27.19368 | 4656 ft | 225 kts | 54° |
| 2026-05-08 15:30 | 36.76480 | 27.21001 | 5252 ft | 234 kts | 58° |
| 2026-05-08 15:31 | 36.77337 | 27.22758 | 5864 ft | 238 kts | 59° |
| 2026-05-08 15:31 | 36.78233 | 27.24524 | 6494 ft | 243 kts | 55° |
| 2026-05-08 15:31 | 36.79214 | 27.26262 | 7098 ft | 247 kts | 52° |
| 2026-05-08 15:31 | 36.80458 | 27.27681 | 7784 ft | 240 kts | 22° |
| 2026-05-08 15:32 | 36.81487 | 27.28087 | 8230 ft | 232 kts | 359° |
| 2026-05-08 15:32 | 36.83049 | 27.27794 | 8695 ft | 234 kts | 334° |
| 2026-05-08 15:32 | 36.84469 | 27.26680 | 8878 ft | 252 kts | 317° |
| 2026-05-08 15:32 | 36.85932 | 27.25294 | 9153 ft | 275 kts | 322° |
| 2026-05-08 15:33 | 36.87551 | 27.23982 | 9894 ft | 279 kts | 324° |
| 2026-05-08 15:33 | 36.89212 | 27.22675 | 10431 ft | 291 kts | 324° |
| 2026-05-08 15:33 | 36.90979 | 27.21255 | 10604 ft | 313 kts | 323° |
| 2026-05-08 15:33 | 36.92865 | 27.19714 | 10831 ft | 332 kts | 323° |
| 2026-05-08 15:34 | 36.94815 | 27.18106 | 11410 ft | 338 kts | 323° |
| 2026-05-08 15:34 | 36.96797 | 27.16515 | 12093 ft | 341 kts | 324° |
| 2026-05-08 15:34 | 36.98842 | 27.14952 | 12811 ft | 343 kts | 326° |
| 2026-05-08 15:34 | 37.00900 | 27.13417 | 13486 ft | 346 kts | 326° |
| 2026-05-08 15:35 | 37.02983 | 27.11874 | 14114 ft | 350 kts | 326° |
| 2026-05-08 15:35 | 37.05084 | 27.10312 | 14691 ft | 352 kts | 326° |
| 2026-05-08 15:35 | 37.07194 | 27.08733 | 15279 ft | 354 kts | 326° |
| 2026-05-08 15:35 | 37.09310 | 27.07136 | 15860 ft | 357 kts | 325° |
| 2026-05-08 15:36 | 37.11439 | 27.05520 | 16445 ft | 359 kts | 325° |
| 2026-05-08 15:36 | 37.13585 | 27.03888 | 17010 ft | 362 kts | 325° |
| 2026-05-08 15:36 | 37.15740 | 27.02248 | 17588 ft | 364 kts | 325° |
| 2026-05-08 15:36 | 37.17916 | 27.00592 | 18162 ft | 367 kts | 325° |
| 2026-05-08 15:37 | 37.20112 | 26.98922 | 18679 ft | 370 kts | 325° |
| 2026-05-08 15:37 | 37.22315 | 26.97246 | 19176 ft | 372 kts | 325° |
| 2026-05-08 15:37 | 37.24537 | 26.95556 | 19676 ft | 374 kts | 325° |
| 2026-05-08 15:37 | 37.26770 | 26.93856 | 20198 ft | 376 kts | 325° |
| 2026-05-08 15:38 | 37.29011 | 26.92148 | 20716 ft | 378 kts | 325° |
| 2026-05-08 15:38 | 37.31266 | 26.90430 | 21206 ft | 380 kts | 325° |
| 2026-05-08 15:38 | 37.33529 | 26.88703 | 21681 ft | 382 kts | 325° |
| 2026-05-08 15:38 | 37.35804 | 26.86963 | 22150 ft | 384 kts | 325° |
| 2026-05-08 15:39 | 37.38095 | 26.85211 | 22590 ft | 386 kts | 325° |
| 2026-05-08 15:39 | 37.40336 | 26.83341 | 23016 ft | 386 kts | 318° |
| 2026-05-08 15:39 | 37.42386 | 26.81152 | 23437 ft | 387 kts | 316° |
| 2026-05-08 15:39 | 37.44411 | 26.78964 | 23817 ft | 390 kts | 316° |
| 2026-05-08 15:40 | 37.46478 | 26.76732 | 24164 ft | 392 kts | 316° |
| 2026-05-08 15:40 | 37.48548 | 26.74494 | 24488 ft | 394 kts | 316° |
| 2026-05-08 15:40 | 37.50632 | 26.72237 | 24816 ft | 395 kts | 316° |
| 2026-05-08 15:40 | 37.52720 | 26.69972 | 25141 ft | 397 kts | 316° |
| 2026-05-08 15:41 | 37.54820 | 26.67699 | 25460 ft | 399 kts | 316° |
| 2026-05-08 15:41 | 37.56931 | 26.65417 | 25775 ft | 401 kts | 316° |
| 2026-05-08 15:41 | 37.59051 | 26.63125 | 26086 ft | 402 kts | 316° |
| 2026-05-08 15:41 | 37.61180 | 26.60817 | 26391 ft | 404 kts | 315° |
| 2026-05-08 15:42 | 37.63313 | 26.58499 | 26691 ft | 406 kts | 315° |
| 2026-05-08 15:42 | 37.65456 | 26.56169 | 26988 ft | 407 kts | 315° |
| 2026-05-08 15:42 | 37.67608 | 26.53830 | 27239 ft | 410 kts | 315° |
| 2026-05-08 15:42 | 37.69775 | 26.51474 | 27508 ft | 412 kts | 315° |
| 2026-05-08 15:43 | 37.71951 | 26.49106 | 27773 ft | 414 kts | 315° |
| 2026-05-08 15:43 | 37.74142 | 26.46723 | 28044 ft | 415 kts | 315° |
| 2026-05-08 15:43 | 37.76333 | 26.44341 | 28311 ft | 417 kts | 315° |
| 2026-05-08 15:43 | 37.78536 | 26.41943 | 28568 ft | 418 kts | 315° |
| 2026-05-08 15:44 | 37.80741 | 26.39541 | 28813 ft | 419 kts | 315° |
| 2026-05-08 15:44 | 37.82932 | 26.37154 | 29068 ft | 421 kts | 315° |
| 2026-05-08 15:44 | 37.85150 | 26.34736 | 29328 ft | 421 kts | 315° |
| 2026-05-08 15:44 | 37.87372 | 26.32314 | 29560 ft | 422 kts | 315° |
| 2026-05-08 15:45 | 37.89597 | 26.29881 | 29799 ft | 422 kts | 315° |
| 2026-05-08 15:45 | 37.91815 | 26.27447 | 30111 ft | 421 kts | 314° |
| 2026-05-08 15:45 | 37.94020 | 26.25017 | 30388 ft | 420 kts | 314° |
| 2026-05-08 15:45 | 37.96222 | 26.22590 | 30658 ft | 419 kts | 314° |
| 2026-05-08 15:46 | 37.98418 | 26.20175 | 30920 ft | 418 kts | 314° |
| 2026-05-08 15:46 | 38.00615 | 26.17758 | 31165 ft | 417 kts | 314° |
| 2026-05-08 15:46 | 38.02805 | 26.15351 | 31407 ft | 417 kts | 314° |
| 2026-05-08 15:46 | 38.04993 | 26.12940 | 31650 ft | 416 kts | 314° |
| 2026-05-08 15:47 | 38.07177 | 26.10532 | 31889 ft | 416 kts | 314° |
| 2026-05-08 15:47 | 38.09357 | 26.08125 | 32138 ft | 415 kts | 313° |
| 2026-05-08 15:47 | 38.11531 | 26.05721 | 32384 ft | 414 kts | 313° |
| 2026-05-08 15:47 | 38.13700 | 26.03316 | 32674 ft | 413 kts | 313° |
| 2026-05-08 15:48 | 38.18017 | 25.98525 | 33194 ft | 411 kts | 313° |
| 2026-05-08 15:48 | 38.20170 | 25.96134 | 33443 ft | 411 kts | 313° |
| 2026-05-08 15:48 | 38.22317 | 25.93745 | 33723 ft | 410 kts | 312° |
| 2026-05-08 15:49 | 38.24463 | 25.91360 | 33985 ft | 409 kts | 312° |
| 2026-05-08 15:49 | 38.28879 | 25.86773 | 34085 ft | 411 kts | 315° |
| 2026-05-08 15:50 | 38.33469 | 25.82408 | 34086 ft | 411 kts | 316° |
| 2026-05-08 15:50 | 38.38054 | 25.78056 | 34086 ft | 411 kts | 316° |
| 2026-05-08 15:51 | 38.42598 | 25.73642 | 34082 ft | 411 kts | 315° |
| 2026-05-08 15:51 | 38.47130 | 25.69191 | 34080 ft | 411 kts | 315° |
| 2026-05-08 15:52 | 38.51662 | 25.64732 | 34079 ft | 411 kts | 315° |
| 2026-05-08 15:52 | 38.56206 | 25.60276 | 34075 ft | 411 kts | 315° |
| 2026-05-08 15:53 | 38.60750 | 25.55817 | 34092 ft | 412 kts | 315° |
| 2026-05-08 15:53 | 38.65258 | 25.51382 | 34084 ft | 411 kts | 315° |
| 2026-05-08 15:54 | 38.69799 | 25.46916 | 34084 ft | 411 kts | 315° |
| 2026-05-08 15:54 | 38.74331 | 25.42438 | 34069 ft | 412 kts | 315° |
| 2026-05-08 15:55 | 38.78868 | 25.37954 | 34058 ft | 412 kts | 315° |
| 2026-05-08 15:55 | 38.85681 | 25.31215 | 34079 ft | 412 kts | 314° |
| 2026-05-08 15:56 | 38.90210 | 25.26717 | 34071 ft | 411 kts | 314° |
| 2026-05-08 15:56 | 38.94734 | 25.22213 | 34098 ft | 411 kts | 314° |
| 2026-05-08 15:57 | 38.99263 | 25.17700 | 34072 ft | 412 kts | 314° |
| 2026-05-08 15:57 | 39.03792 | 25.13184 | 34055 ft | 412 kts | 314° |
| 2026-05-08 15:58 | 39.08290 | 25.08691 | 34053 ft | 412 kts | 314° |
| 2026-05-08 15:58 | 39.12817 | 25.04158 | 34050 ft | 412 kts | 314° |
| 2026-05-08 15:59 | 39.17338 | 24.99622 | 34087 ft | 412 kts | 314° |
| 2026-05-08 15:59 | 39.21859 | 24.95086 | 34099 ft | 412 kts | 314° |
| 2026-05-08 16:00 | 39.26387 | 24.90542 | 34068 ft | 412 kts | 313° |
| 2026-05-08 16:00 | 39.30919 | 24.85986 | 34059 ft | 413 kts | 313° |
| 2026-05-08 16:01 | 39.35456 | 24.81415 | 34052 ft | 413 kts | 313° |
| 2026-05-08 16:01 | 39.39985 | 24.76837 | 34050 ft | 413 kts | 313° |
| 2026-05-08 16:02 | 39.44510 | 24.72238 | 34047 ft | 413 kts | 313° |
| 2026-05-08 16:02 | 39.49039 | 24.67639 | 34073 ft | 414 kts | 314° |
| 2026-05-08 16:03 | 39.53589 | 24.63013 | 34037 ft | 417 kts | 314° |
| 2026-05-08 16:03 | 39.58163 | 24.58364 | 34034 ft | 419 kts | 314° |
| 2026-05-08 16:04 | 39.62751 | 24.53683 | 34032 ft | 420 kts | 314° |
| 2026-05-08 16:04 | 39.67309 | 24.49024 | 34036 ft | 420 kts | 314° |
| 2026-05-08 16:05 | 39.71941 | 24.44288 | 34043 ft | 421 kts | 314° |
| 2026-05-08 16:05 | 39.76516 | 24.39596 | 34051 ft | 421 kts | 314° |
| 2026-05-08 16:06 | 39.81125 | 24.34860 | 34047 ft | 424 kts | 314° |
| 2026-05-08 16:06 | 39.85759 | 24.30100 | 34040 ft | 425 kts | 314° |
| 2026-05-08 16:07 | 39.90400 | 24.25317 | 34039 ft | 426 kts | 314° |
| 2026-05-08 16:07 | 39.95045 | 24.20514 | 34043 ft | 426 kts | 314° |
| 2026-05-08 16:08 | 39.99693 | 24.15702 | 34047 ft | 427 kts | 314° |
| 2026-05-08 16:08 | 40.04345 | 24.10876 | 34053 ft | 428 kts | 315° |
| 2026-05-08 16:09 | 40.08265 | 24.06818 | 34066 ft | 430 kts | 316° |
| 2026-05-08 16:09 | 40.13739 | 24.01135 | 34039 ft | 433 kts | 316° |
| 2026-05-08 16:10 | 40.18460 | 23.96221 | 34042 ft | 434 kts | 316° |
| 2026-05-08 16:10 | 40.23186 | 23.91277 | 34044 ft | 435 kts | 316° |
| 2026-05-08 16:11 | 40.27921 | 23.86315 | 34054 ft | 436 kts | 316° |
| 2026-05-08 16:11 | 40.32664 | 23.81351 | 34050 ft | 437 kts | 316° |
| 2026-05-08 16:12 | 40.37409 | 23.76374 | 34064 ft | 437 kts | 316° |
| 2026-05-08 16:12 | 40.42154 | 23.71382 | 34063 ft | 437 kts | 317° |
| 2026-05-08 16:13 | 40.46099 | 23.67234 | 34056 ft | 438 kts | 317° |
| 2026-05-08 16:13 | 40.50855 | 23.62222 | 34056 ft | 438 kts | 317° |
| 2026-05-08 16:14 | 40.55611 | 23.57188 | 34061 ft | 439 kts | 317° |
| 2026-05-08 16:14 | 40.60377 | 23.52143 | 34051 ft | 441 kts | 317° |
| 2026-05-08 16:15 | 40.65163 | 23.47070 | 34054 ft | 442 kts | 317° |
| 2026-05-08 16:15 | 40.69951 | 23.41984 | 34069 ft | 442 kts | 318° |
| 2026-05-08 16:16 | 40.74739 | 23.36878 | 34064 ft | 443 kts | 318° |
| 2026-05-08 16:16 | 40.79529 | 23.31757 | 34066 ft | 443 kts | 318° |
| 2026-05-08 16:17 | 40.84322 | 23.26631 | 34069 ft | 444 kts | 319° |
| 2026-05-08 16:17 | 40.89125 | 23.21487 | 34059 ft | 445 kts | 319° |
| 2026-05-08 16:18 | 40.93941 | 23.16327 | 34061 ft | 446 kts | 319° |
| 2026-05-08 16:18 | 40.98750 | 23.11159 | 34059 ft | 445 kts | 319° |
| 2026-05-08 16:19 | 41.03562 | 23.05969 | 34060 ft | 446 kts | 319° |
| 2026-05-08 16:19 | 41.08386 | 23.00752 | 34228 ft | 449 kts | 319° |
| 2026-05-08 16:20 | 41.10627 | 22.97951 | 34413 ft | 448 kts | 311° |
| 2026-05-08 16:20 | 41.12655 | 22.94818 | 34610 ft | 447 kts | 309° |
| 2026-05-08 16:20 | 41.14665 | 22.91667 | 34819 ft | 447 kts | 309° |
| 2026-05-08 16:20 | 41.16670 | 22.88517 | 35034 ft | 446 kts | 309° |
| 2026-05-08 16:21 | 41.18673 | 22.85368 | 35244 ft | 445 kts | 309° |
| 2026-05-08 16:21 | 41.20668 | 22.82226 | 35438 ft | 445 kts | 308° |
| 2026-05-08 16:21 | 41.22657 | 22.79089 | 35639 ft | 444 kts | 308° |
| 2026-05-08 16:21 | 41.24642 | 22.75953 | 35836 ft | 443 kts | 308° |
| 2026-05-08 16:22 | 41.26650 | 22.72854 | 36017 ft | 442 kts | 310° |
| 2026-05-08 16:22 | 41.28709 | 22.69812 | 36073 ft | 442 kts | 310° |
| 2026-05-08 16:22 | 41.32891 | 22.63818 | 36065 ft | 442 kts | 311° |
| 2026-05-08 16:23 | 41.37062 | 22.57803 | 36060 ft | 442 kts | 311° |
| 2026-05-08 16:23 | 41.41196 | 22.51732 | 36065 ft | 442 kts | 310° |
| 2026-05-08 16:24 | 41.45317 | 22.45640 | 36061 ft | 442 kts | 310° |
| 2026-05-08 16:24 | 41.49453 | 22.39545 | 36059 ft | 443 kts | 311° |
| 2026-05-08 16:25 | 41.53589 | 22.33435 | 36059 ft | 444 kts | 310° |
| 2026-05-08 16:25 | 41.57721 | 22.27312 | 36052 ft | 444 kts | 310° |
| 2026-05-08 16:26 | 41.61855 | 22.21185 | 36059 ft | 444 kts | 310° |
| 2026-05-08 16:26 | 41.65964 | 22.15077 | 36059 ft | 445 kts | 310° |
| 2026-05-08 16:27 | 41.70096 | 22.08910 | 36059 ft | 445 kts | 310° |
| 2026-05-08 16:27 | 41.74225 | 22.02735 | 36055 ft | 445 kts | 310° |
| 2026-05-08 16:28 | 41.78359 | 21.96555 | 36050 ft | 446 kts | 310° |
| 2026-05-08 16:28 | 41.82503 | 21.90355 | 36048 ft | 446 kts | 310° |
| 2026-05-08 16:29 | 41.86633 | 21.84152 | 36048 ft | 446 kts | 310° |
| 2026-05-08 16:29 | 41.90761 | 21.77933 | 36056 ft | 446 kts | 310° |
| 2026-05-08 16:30 | 41.94893 | 21.71704 | 36049 ft | 446 kts | 309° |
| 2026-05-08 16:30 | 41.99012 | 21.65473 | 36045 ft | 446 kts | 309° |
| 2026-05-08 16:31 | 42.03124 | 21.59231 | 36045 ft | 446 kts | 309° |
| 2026-05-08 16:31 | 42.07247 | 21.52972 | 36052 ft | 446 kts | 309° |
| 2026-05-08 16:32 | 42.11356 | 21.46709 | 36051 ft | 446 kts | 309° |
| 2026-05-08 16:32 | 42.15467 | 21.40439 | 36058 ft | 446 kts | 309° |
| 2026-05-08 16:33 | 42.19538 | 21.34126 | 36059 ft | 446 kts | 308° |
| 2026-05-08 16:33 | 42.23539 | 21.27739 | 36057 ft | 445 kts | 308° |
| 2026-05-08 16:34 | 42.27531 | 21.21346 | 36064 ft | 445 kts | 308° |
| 2026-05-08 16:34 | 42.31541 | 21.14961 | 36065 ft | 445 kts | 308° |
| 2026-05-08 16:35 | 42.35543 | 21.08579 | 36077 ft | 445 kts | 308° |
| 2026-05-08 16:35 | 42.39532 | 21.02195 | 36076 ft | 444 kts | 308° |
| 2026-05-08 16:36 | 42.43516 | 20.95812 | 36073 ft | 443 kts | 308° |
| 2026-05-08 16:36 | 42.47493 | 20.89430 | 36071 ft | 443 kts | 308° |
| 2026-05-08 16:37 | 42.51463 | 20.83040 | 36072 ft | 443 kts | 308° |
| 2026-05-08 16:37 | 42.55423 | 20.76641 | 36080 ft | 442 kts | 308° |
| 2026-05-08 16:38 | 42.59355 | 20.70296 | 36073 ft | 441 kts | 308° |
| 2026-05-08 16:38 | 42.63291 | 20.63920 | 36067 ft | 440 kts | 308° |
| 2026-05-08 16:39 | 42.67219 | 20.57534 | 36063 ft | 440 kts | 308° |
| 2026-05-08 16:39 | 42.71150 | 20.51137 | 36061 ft | 440 kts | 308° |
| 2026-05-08 16:40 | 42.75075 | 20.44740 | 36061 ft | 440 kts | 307° |
| 2026-05-08 16:40 | 42.78996 | 20.38335 | 36064 ft | 441 kts | 307° |
| 2026-05-08 16:41 | 42.82937 | 20.31940 | 36058 ft | 441 kts | 310° |
| 2026-05-08 16:42 | 42.89901 | 20.23649 | 36054 ft | 444 kts | 317° |
| 2026-05-08 16:42 | 42.94617 | 20.18210 | 36042 ft | 444 kts | 317° |
| 2026-05-08 16:43 | 42.99328 | 20.12759 | 36052 ft | 444 kts | 317° |
| 2026-05-08 16:43 | 43.04030 | 20.07306 | 36052 ft | 443 kts | 317° |
| 2026-05-08 16:44 | 43.08725 | 20.01851 | 36043 ft | 443 kts | 317° |
| 2026-05-08 16:44 | 43.13414 | 19.96398 | 36041 ft | 442 kts | 317° |
| 2026-05-08 16:45 | 43.18097 | 19.90941 | 36035 ft | 442 kts | 317° |
| 2026-05-08 16:45 | 43.22774 | 19.85480 | 36033 ft | 441 kts | 317° |
| 2026-05-08 16:46 | 43.27459 | 19.80013 | 36034 ft | 441 kts | 317° |
| 2026-05-08 16:46 | 43.32124 | 19.74554 | 36036 ft | 440 kts | 317° |
| 2026-05-08 16:47 | 43.36753 | 19.69124 | 36035 ft | 440 kts | 317° |
| 2026-05-08 16:47 | 43.41395 | 19.63648 | 36034 ft | 440 kts | 317° |
| 2026-05-08 16:48 | 43.46036 | 19.58175 | 36033 ft | 440 kts | 317° |
| 2026-05-08 16:48 | 43.50679 | 19.52690 | 36039 ft | 440 kts | 317° |
| 2026-05-08 16:49 | 43.55315 | 19.47186 | 36029 ft | 440 kts | 316° |
| 2026-05-08 16:49 | 43.59961 | 19.41649 | 36025 ft | 441 kts | 316° |
| 2026-05-08 16:50 | 43.64600 | 19.36115 | 36025 ft | 441 kts | 317° |
| 2026-05-08 16:50 | 43.69251 | 19.30581 | 36027 ft | 441 kts | 316° |
| 2026-05-08 16:51 | 43.73898 | 19.25034 | 36029 ft | 441 kts | 316° |
| 2026-05-08 16:51 | 43.78536 | 19.19465 | 36025 ft | 442 kts | 316° |
| 2026-05-08 16:52 | 43.83155 | 19.13919 | 36023 ft | 442 kts | 316° |
| 2026-05-08 16:52 | 43.87798 | 19.08333 | 36015 ft | 442 kts | 316° |
| 2026-05-08 16:53 | 43.94763 | 18.99943 | 36035 ft | 442 kts | 316° |
| 2026-05-08 16:53 | 43.99395 | 18.94342 | 36043 ft | 442 kts | 316° |
| 2026-05-08 16:54 | 44.04024 | 18.88729 | 36034 ft | 441 kts | 316° |
| 2026-05-08 16:54 | 44.08638 | 18.83114 | 36045 ft | 441 kts | 316° |
| 2026-05-08 16:55 | 44.13266 | 18.77485 | 36053 ft | 441 kts | 316° |
| 2026-05-08 16:55 | 44.17100 | 18.72809 | 36050 ft | 441 kts | 316° |
| 2026-05-08 16:56 | 44.21710 | 18.67174 | 36032 ft | 440 kts | 315° |
| 2026-05-08 16:56 | 44.26308 | 18.61537 | 36031 ft | 440 kts | 315° |
| 2026-05-08 16:57 | 44.30908 | 18.55893 | 36043 ft | 440 kts | 315° |
| 2026-05-08 16:57 | 44.35504 | 18.50238 | 36044 ft | 440 kts | 315° |
| 2026-05-08 16:58 | 44.40103 | 18.44567 | 36037 ft | 441 kts | 315° |
| 2026-05-08 16:58 | 44.44701 | 18.38881 | 36042 ft | 441 kts | 315° |
| 2026-05-08 16:59 | 44.49287 | 18.33196 | 36038 ft | 440 kts | 315° |
| 2026-05-08 16:59 | 44.53849 | 18.27536 | 36054 ft | 440 kts | 315° |
| 2026-05-08 17:00 | 44.58430 | 18.21846 | 36036 ft | 440 kts | 315° |
| 2026-05-08 17:00 | 44.63011 | 18.16141 | 36043 ft | 440 kts | 315° |
| 2026-05-08 17:01 | 44.67584 | 18.10428 | 36041 ft | 439 kts | 315° |
| 2026-05-08 17:01 | 44.72153 | 18.04722 | 36038 ft | 439 kts | 314° |
| 2026-05-08 17:02 | 44.76721 | 17.98993 | 36045 ft | 440 kts | 314° |
| 2026-05-08 17:02 | 44.81285 | 17.93246 | 36041 ft | 440 kts | 314° |
| 2026-05-08 17:03 | 44.85839 | 17.87496 | 36037 ft | 440 kts | 314° |
| 2026-05-08 17:03 | 44.90403 | 17.81740 | 36034 ft | 440 kts | 314° |
| 2026-05-08 17:04 | 44.94931 | 17.76007 | 36039 ft | 440 kts | 314° |
| 2026-05-08 17:04 | 44.99493 | 17.70222 | 36039 ft | 441 kts | 314° |
| 2026-05-08 17:05 | 45.04058 | 17.64416 | 36038 ft | 441 kts | 314° |
| 2026-05-08 17:05 | 45.08614 | 17.58614 | 36038 ft | 441 kts | 314° |
| 2026-05-08 17:06 | 45.13173 | 17.52799 | 36056 ft | 441 kts | 314° |
| 2026-05-08 17:06 | 45.17726 | 17.46969 | 36047 ft | 441 kts | 314° |
| 2026-05-08 17:07 | 45.22283 | 17.41122 | 36043 ft | 441 kts | 314° |
| 2026-05-08 17:07 | 45.26833 | 17.35271 | 36056 ft | 441 kts | 313° |
| 2026-05-08 17:08 | 45.31376 | 17.29410 | 36043 ft | 441 kts | 313° |
| 2026-05-08 17:08 | 45.35918 | 17.23543 | 36046 ft | 441 kts | 313° |
| 2026-05-08 17:09 | 45.40461 | 17.17666 | 36046 ft | 441 kts | 313° |
| 2026-05-08 17:09 | 45.44974 | 17.11808 | 36042 ft | 441 kts | 313° |
| 2026-05-08 17:10 | 45.49509 | 17.05916 | 36034 ft | 441 kts | 313° |
| 2026-05-08 17:10 | 45.54043 | 17.00010 | 36034 ft | 441 kts | 313° |
| 2026-05-08 17:11 | 45.58574 | 16.94081 | 36047 ft | 441 kts | 313° |
| 2026-05-08 17:11 | 45.63095 | 16.88156 | 36043 ft | 441 kts | 313° |
| 2026-05-08 17:12 | 45.67615 | 16.82224 | 36040 ft | 441 kts | 313° |
| 2026-05-08 17:12 | 45.72141 | 16.76273 | 36037 ft | 441 kts | 313° |
| 2026-05-08 17:13 | 45.76652 | 16.70326 | 36061 ft | 441 kts | 313° |
| 2026-05-08 17:13 | 45.81166 | 16.64365 | 36051 ft | 441 kts | 313° |
| 2026-05-08 17:14 | 45.85679 | 16.58390 | 36043 ft | 441 kts | 313° |
| 2026-05-08 17:14 | 45.90186 | 16.52410 | 36039 ft | 441 kts | 313° |
| 2026-05-08 17:15 | 45.94688 | 16.46411 | 36044 ft | 441 kts | 313° |
| 2026-05-08 17:15 | 45.99177 | 16.40411 | 36062 ft | 441 kts | 313° |
| 2026-05-08 17:16 | 46.03673 | 16.34397 | 36055 ft | 441 kts | 313° |
| 2026-05-08 17:16 | 46.08163 | 16.28392 | 36050 ft | 441 kts | 313° |
| 2026-05-08 17:17 | 46.12646 | 16.22373 | 36047 ft | 440 kts | 312° |
| 2026-05-08 17:17 | 46.17099 | 16.16382 | 36048 ft | 440 kts | 312° |
| 2026-05-08 17:18 | 46.21576 | 16.10335 | 36062 ft | 440 kts | 312° |
| 2026-05-08 17:18 | 46.26043 | 16.04285 | 36070 ft | 440 kts | 312° |
| 2026-05-08 17:19 | 46.30576 | 15.98309 | 36055 ft | 443 kts | 318° |
| 2026-05-08 17:19 | 46.35888 | 15.93642 | 36049 ft | 448 kts | 326° |
| 2026-05-08 17:20 | 46.41345 | 15.89261 | 36056 ft | 448 kts | 326° |
| 2026-05-08 17:20 | 46.46792 | 15.84856 | 36057 ft | 448 kts | 326° |
| 2026-05-08 17:21 | 46.52236 | 15.80433 | 36066 ft | 448 kts | 326° |
| 2026-05-08 17:21 | 46.57680 | 15.76012 | 36064 ft | 448 kts | 326° |
| 2026-05-08 17:22 | 46.63123 | 15.71569 | 36062 ft | 448 kts | 326° |
| 2026-05-08 17:22 | 46.68539 | 15.67090 | 36058 ft | 446 kts | 322° |
| 2026-05-08 17:23 | 46.73113 | 15.61306 | 36070 ft | 434 kts | 304° |
| 2026-05-08 17:23 | 46.76960 | 15.54472 | 36075 ft | 433 kts | 304° |
| 2026-05-08 17:24 | 46.80764 | 15.47737 | 36070 ft | 432 kts | 304° |
| 2026-05-08 17:24 | 46.84584 | 15.40964 | 36071 ft | 432 kts | 304° |
| 2026-05-08 17:25 | 46.88406 | 15.34167 | 36067 ft | 432 kts | 304° |
| 2026-05-08 17:25 | 46.92213 | 15.27367 | 36077 ft | 432 kts | 304° |
| 2026-05-08 17:26 | 46.96021 | 15.20557 | 36057 ft | 433 kts | 304° |
| 2026-05-08 17:26 | 46.99829 | 15.13744 | 36055 ft | 433 kts | 304° |
| 2026-05-08 17:27 | 47.03635 | 15.06895 | 36074 ft | 432 kts | 304° |
| 2026-05-08 17:27 | 47.07431 | 15.00061 | 36082 ft | 432 kts | 304° |
| 2026-05-08 17:28 | 47.11226 | 14.93215 | 36080 ft | 432 kts | 304° |
| 2026-05-08 17:28 | 47.15013 | 14.86362 | 36071 ft | 432 kts | 304° |
| 2026-05-08 17:29 | 47.18764 | 14.79541 | 36063 ft | 431 kts | 304° |
| 2026-05-08 17:29 | 47.22536 | 14.72675 | 36060 ft | 431 kts | 304° |
| 2026-05-08 17:30 | 47.26298 | 14.65797 | 36053 ft | 431 kts | 304° |
| 2026-05-08 17:30 | 47.30060 | 14.58898 | 36080 ft | 432 kts | 304° |
| 2026-05-08 17:31 | 47.33827 | 14.51975 | 36074 ft | 432 kts | 304° |
| 2026-05-08 17:31 | 47.37590 | 14.45060 | 36074 ft | 432 kts | 304° |
| 2026-05-08 17:32 | 47.41354 | 14.38127 | 36075 ft | 432 kts | 303° |
| 2026-05-08 17:32 | 47.45109 | 14.31186 | 36079 ft | 433 kts | 304° |
| 2026-05-08 17:33 | 47.48859 | 14.24234 | 36072 ft | 432 kts | 304° |
| 2026-05-08 17:33 | 47.52608 | 14.17271 | 36072 ft | 433 kts | 304° |
| 2026-05-08 17:34 | 47.56358 | 14.10281 | 36073 ft | 434 kts | 304° |
| 2026-05-08 17:34 | 47.59951 | 14.03206 | 36071 ft | 430 kts | 296° |
| 2026-05-08 17:35 | 47.61313 | 13.99288 | 35829 ft | 426 kts | 289° |
| 2026-05-08 17:35 | 47.62495 | 13.95273 | 35593 ft | 425 kts | 289° |
| 2026-05-08 17:35 | 47.63687 | 13.91236 | 35338 ft | 427 kts | 289° |
| 2026-05-08 17:35 | 47.64886 | 13.87202 | 35096 ft | 428 kts | 288° |
| 2026-05-08 17:36 | 47.66087 | 13.83169 | 34850 ft | 428 kts | 288° |
| 2026-05-08 17:36 | 47.67292 | 13.79126 | 34611 ft | 429 kts | 288° |
| 2026-05-08 17:36 | 47.68498 | 13.75077 | 34377 ft | 429 kts | 288° |
| 2026-05-08 17:36 | 47.69699 | 13.71024 | 34143 ft | 429 kts | 288° |
| 2026-05-08 17:37 | 47.70895 | 13.66974 | 33879 ft | 429 kts | 288° |
| 2026-05-08 17:37 | 47.72092 | 13.62921 | 33589 ft | 429 kts | 288° |
| 2026-05-08 17:37 | 47.73277 | 13.58902 | 33336 ft | 418 kts | 288° |
| 2026-05-08 17:37 | 47.74430 | 13.55006 | 33319 ft | 403 kts | 287° |
| 2026-05-08 17:38 | 47.75549 | 13.51242 | 33015 ft | 399 kts | 287° |
| 2026-05-08 17:38 | 47.76665 | 13.47457 | 32171 ft | 402 kts | 288° |
| 2026-05-08 17:38 | 47.77771 | 13.43647 | 31065 ft | 402 kts | 288° |
| 2026-05-08 17:38 | 47.78872 | 13.39835 | 29988 ft | 400 kts | 289° |
| 2026-05-08 17:39 | 47.79968 | 13.36042 | 28787 ft | 397 kts | 289° |
| 2026-05-08 17:39 | 47.81056 | 13.32288 | 27651 ft | 394 kts | 289° |
| 2026-05-08 17:39 | 47.81776 | 13.29802 | 27126 ft | 395 kts | 290° |
| 2026-05-08 17:39 | 47.82859 | 13.26059 | 26544 ft | 393 kts | 290° |
| 2026-05-08 17:40 | 47.83940 | 13.22332 | 25953 ft | 390 kts | 290° |
| 2026-05-08 17:40 | 47.85014 | 13.18631 | 25371 ft | 389 kts | 290° |
| 2026-05-08 17:40 | 47.86083 | 13.14934 | 24774 ft | 388 kts | 290° |
| 2026-05-08 17:40 | 47.87143 | 13.11253 | 24186 ft | 387 kts | 290° |
| 2026-05-08 17:41 | 47.88204 | 13.07567 | 23625 ft | 386 kts | 291° |
| 2026-05-08 17:41 | 47.89257 | 13.03908 | 23011 ft | 384 kts | 291° |
| 2026-05-08 17:41 | 47.90307 | 13.00261 | 22502 ft | 381 kts | 291° |
| 2026-05-08 17:41 | 47.91346 | 12.96651 | 21986 ft | 378 kts | 291° |
| 2026-05-08 17:42 | 47.92372 | 12.93069 | 21526 ft | 374 kts | 291° |
| 2026-05-08 17:42 | 47.93386 | 12.89510 | 21046 ft | 371 kts | 291° |
| 2026-05-08 17:42 | 47.94387 | 12.85988 | 20575 ft | 368 kts | 291° |
| 2026-05-08 17:42 | 47.95389 | 12.82496 | 20106 ft | 365 kts | 294° |
| 2026-05-08 17:43 | 47.96620 | 12.79195 | 19643 ft | 363 kts | 299° |
| 2026-05-08 17:43 | 47.97913 | 12.75969 | 19160 ft | 361 kts | 299° |
| 2026-05-08 17:43 | 47.99199 | 12.72749 | 18676 ft | 360 kts | 299° |
| 2026-05-08 17:43 | 48.00473 | 12.69546 | 18166 ft | 359 kts | 299° |
| 2026-05-08 17:44 | 48.01744 | 12.66345 | 17658 ft | 357 kts | 299° |
| 2026-05-08 17:44 | 48.03005 | 12.63157 | 17161 ft | 355 kts | 299° |
| 2026-05-08 17:44 | 48.04254 | 12.59999 | 16664 ft | 353 kts | 299° |
| 2026-05-08 17:44 | 48.05504 | 12.56846 | 16168 ft | 351 kts | 299° |
| 2026-05-08 17:45 | 48.06730 | 12.53754 | 15687 ft | 350 kts | 299° |
| 2026-05-08 17:45 | 48.07991 | 12.50599 | 15184 ft | 349 kts | 300° |
| 2026-05-08 17:45 | 48.09219 | 12.47537 | 14696 ft | 347 kts | 300° |
| 2026-05-08 17:45 | 48.10477 | 12.44398 | 14192 ft | 347 kts | 299° |
| 2026-05-08 17:46 | 48.11713 | 12.41307 | 13679 ft | 346 kts | 299° |
| 2026-05-08 17:46 | 48.12943 | 12.38231 | 13159 ft | 344 kts | 299° |
| 2026-05-08 17:46 | 48.14016 | 12.35104 | 12917 ft | 332 kts | 290° |
| 2026-05-08 17:46 | 48.14603 | 12.31848 | 12589 ft | 325 kts | 277° |
| 2026-05-08 17:47 | 48.14837 | 12.28498 | 12336 ft | 322 kts | 275° |
| 2026-05-08 17:47 | 48.15061 | 12.25164 | 12079 ft | 321 kts | 275° |
| 2026-05-08 17:47 | 48.15291 | 12.21844 | 11825 ft | 320 kts | 275° |
| 2026-05-08 17:47 | 48.15444 | 12.19648 | 11655 ft | 319 kts | 275° |
| 2026-05-08 17:48 | 48.15769 | 12.15157 | 11371 ft | 328 kts | 276° |
| 2026-05-08 17:48 | 48.16019 | 12.11747 | 11221 ft | 329 kts | 276° |
| 2026-05-08 17:48 | 48.16269 | 12.08341 | 11073 ft | 329 kts | 276° |
| 2026-05-08 17:48 | 48.16517 | 12.04940 | 10924 ft | 328 kts | 275° |
| 2026-05-08 17:49 | 48.16766 | 12.01552 | 10777 ft | 327 kts | 276° |
| 2026-05-08 17:49 | 48.16995 | 11.98169 | 10628 ft | 325 kts | 274° |
| 2026-05-08 17:49 | 48.17166 | 11.94810 | 10464 ft | 320 kts | 274° |
| 2026-05-08 17:49 | 48.17327 | 11.91546 | 10293 ft | 308 kts | 274° |
| 2026-05-08 17:50 | 48.17482 | 11.88403 | 10108 ft | 297 kts | 274° |
| 2026-05-08 17:50 | 48.17632 | 11.85365 | 9911 ft | 288 kts | 274° |
| 2026-05-08 17:50 | 48.17778 | 11.82420 | 9692 ft | 279 kts | 274° |
| 2026-05-08 17:50 | 48.17920 | 11.79544 | 9484 ft | 275 kts | 274° |
| 2026-05-08 17:51 | 48.18061 | 11.76697 | 9277 ft | 274 kts | 274° |
| 2026-05-08 17:51 | 48.18199 | 11.73892 | 9055 ft | 273 kts | 273° |
| 2026-05-08 17:51 | 48.18339 | 11.71054 | 8816 ft | 273 kts | 274° |
| 2026-05-08 17:51 | 48.18479 | 11.68212 | 8585 ft | 273 kts | 274° |
| 2026-05-08 17:52 | 48.18618 | 11.65377 | 8357 ft | 273 kts | 274° |
| 2026-05-08 17:52 | 48.18756 | 11.62531 | 8126 ft | 273 kts | 273° |
| 2026-05-08 17:52 | 48.19142 | 11.56873 | 7520 ft | 273 kts | 284° |
| 2026-05-08 17:53 | 48.19867 | 11.54255 | 7144 ft | 274 kts | 300° |
| 2026-05-08 17:53 | 48.21053 | 11.52025 | 6768 ft | 274 kts | 316° |
| 2026-05-08 17:53 | 48.22577 | 11.50360 | 6409 ft | 267 kts | 332° |
| 2026-05-08 17:53 | 48.24271 | 11.49368 | 6009 ft | 256 kts | 347° |
| 2026-05-08 17:54 | 48.26004 | 11.48992 | 5604 ft | 249 kts | 356° |
| 2026-05-08 17:54 | 48.27707 | 11.48817 | 5115 ft | 243 kts | 5° |
| 2026-05-08 17:54 | 48.29318 | 11.49336 | 4815 ft | 229 kts | 24° |
| 2026-05-08 17:54 | 48.30634 | 11.50483 | 4653 ft | 211 kts | 41° |
| 2026-05-08 17:55 | 48.31597 | 11.52000 | 4510 ft | 192 kts | 56° |
| 2026-05-08 17:55 | 48.32222 | 11.53715 | 4273 ft | 184 kts | 70° |
| 2026-05-08 17:55 | 48.32528 | 11.55538 | 4052 ft | 178 kts | 83° |
| 2026-05-08 17:55 | 48.32671 | 11.57366 | 3827 ft | 175 kts | 82° |
| 2026-05-08 17:56 | 48.32814 | 11.59161 | 3595 ft | 171 kts | 82° |
| 2026-05-08 17:56 | 48.32952 | 11.60895 | 3373 ft | 162 kts | 82° |
| 2026-05-08 17:56 | 48.33080 | 11.62526 | 3156 ft | 153 kts | 83° |
| 2026-05-08 17:56 | 48.33203 | 11.64081 | 2985 ft | 149 kts | 82° |
| 2026-05-08 17:57 | 48.33316 | 11.65618 | 2776 ft | 146 kts | 82° |
| 2026-05-08 17:57 | 48.33434 | 11.67133 | 2571 ft | 146 kts | 82° |
| 2026-05-08 17:57 | 48.33548 | 11.68652 | 2378 ft | 147 kts | 83° |
| 2026-05-08 17:57 | 48.33660 | 11.70188 | 2177 ft | 148 kts | 82° |
| 2026-05-08 17:58 | 48.33794 | 11.71737 | 1969 ft | 150 kts | 81° |
| 2026-05-08 17:58 | 48.33927 | 11.73281 | 1768 ft | 148 kts | 81° |
| 2026-05-08 17:58 | 48.34051 | 11.74807 | 1569 ft | 146 kts | 82° |
| 2026-05-08 17:58 | 48.34160 | 11.76231 | 1485 ft | 115 kts | 84° |
| 2026-05-08 17:59 | 48.34224 | 11.77032 | 1479 ft | 55 kts | 82° |
| 2026-05-08 17:59 | 48.34297 | 11.77496 | 1479 ft | 33 kts | 61° |
| 2026-05-08 17:59 | 48.34394 | 11.77697 | 1482 ft | 21 kts | 54° |
| 2026-05-08 17:59 | 48.34469 | 11.77849 | 1485 ft | 16 kts | 51° |
| 2026-05-08 18:00 | 48.34570 | 11.77916 | 1485 ft | 17 kts | 357° |
| 2026-05-08 18:00 | 48.34794 | 11.77878 | 1485 ft | 17 kts | 353° |
| 2026-05-08 18:00 | 48.34918 | 11.77857 | 1478 ft | 19 kts | 354° |
| 2026-05-08 18:01 | 48.35053 | 11.77836 | 1483 ft | 20 kts | 353° |
| 2026-05-08 18:01 | 48.35157 | 11.77832 | 1479 ft | 15 kts | 26° |
| 2026-05-08 18:01 | 48.35189 | 11.77976 | 1481 ft | 16 kts | 83° |
| 2026-05-08 18:01 | 48.35199 | 11.78119 | 1483 ft | 10 kts | 92° |
| 2026-05-08 18:02 | 48.35158 | 11.78191 | 1483 ft | 9 kts | 159° |
| 2026-05-08 18:02 | 48.35119 | 11.78201 | 1485 ft | 8 kts | 172° |
| 2026-05-08 18:02 | 48.35081 | 11.78255 | 1485 ft | 5 kts | 81° |
| 2026-05-08 18:02 | 48.35085 | 11.78301 | 1473 ft | 4 kts | 83° |
| 2026-05-08 18:03 | 48.35088 | 11.78333 | 1476 ft | 2 kts | 83° |
| 2026-05-08 18:03 | 48.35089 | 11.78349 | 1477 ft | 0 kts | 83° |